createdAt,value
2018-09-12T00:01:36.979Z,22.40
2018-09-12T00:04:05.804Z,22.40
2018-09-12T00:06:34.357Z,22.30
2018-09-12T00:09:02.809Z,22.30
2018-09-12T00:11:31.195Z,22.30
2018-09-12T00:13:59.578Z,22.30
2018-09-12T00:16:28.309Z,22.40
2018-09-12T00:18:56.687Z,22.30
2018-09-12T00:21:25.087Z,22.30
2018-09-12T00:23:53.553Z,22.30
2018-09-12T00:26:21.910Z,22.20
2018-09-12T00:28:50.264Z,22.20
2018-09-12T00:31:18.632Z,22.10
2018-09-12T00:33:47.207Z,22.10
2018-09-12T00:36:15.543Z,22.10
2018-09-12T00:38:43.979Z,22.20
2018-09-12T00:41:12.352Z,22.10
2018-09-12T00:43:40.737Z,22.10
2018-09-12T00:46:09.315Z,22.10
2018-09-12T00:48:37.707Z,22.10
2018-09-12T00:51:06.261Z,22.10
2018-09-12T00:53:34.795Z,22.10
2018-09-12T00:56:03.262Z,22.00
2018-09-12T00:58:32.138Z,22.00
2018-09-12T01:01:00.585Z,22.10
2018-09-12T01:03:28.962Z,22.00
2018-09-12T01:05:57.364Z,22.10
2018-09-12T01:08:25.749Z,22.10
2018-09-12T01:10:54.134Z,22.10
2018-09-12T01:13:22.722Z,22.10
2018-09-12T01:15:51.094Z,22.10
2018-09-12T01:18:20.475Z,22.10
2018-09-12T01:20:50.427Z,22.10
2018-09-12T01:23:19.300Z,22.10
2018-09-12T01:25:47.772Z,22.10
2018-09-12T01:28:16.147Z,22.10
2018-09-12T01:30:44.770Z,22.10
2018-09-12T01:33:13.178Z,22.10
2018-09-12T01:35:41.639Z,22.10
2018-09-12T01:38:10.541Z,22.10
2018-09-12T01:40:39.069Z,22.20
2018-09-12T01:43:08.340Z,22.20
2018-09-12T01:45:37.110Z,22.20
2018-09-12T01:48:05.849Z,22.20
2018-09-12T01:50:34.582Z,22.20
2018-09-12T01:53:03.694Z,22.10
2018-09-12T01:55:32.296Z,22.10
2018-09-12T01:58:01.700Z,22.10
2018-09-12T02:00:35.972Z,22.10
2018-09-12T02:03:05.187Z,22.10
2018-09-12T02:05:34.074Z,22.00
2018-09-12T02:08:03.244Z,22.00
2018-09-12T02:10:31.727Z,22.00
2018-09-12T02:13:00.249Z,22.10
2018-09-12T02:15:28.689Z,22.10
2018-09-12T02:17:57.277Z,22.10
2018-09-12T02:20:25.678Z,22.10
2018-09-12T02:22:54.042Z,22.20
2018-09-12T02:25:22.440Z,22.20
2018-09-12T02:27:50.897Z,22.20
2018-09-12T02:30:19.338Z,22.10
2018-09-12T02:32:47.919Z,22.10
2018-09-12T02:35:16.335Z,22.10
2018-09-12T02:37:44.695Z,22.10
2018-09-12T02:40:13.071Z,22.00
2018-09-12T02:42:42.340Z,22.00
2018-09-12T02:45:11.546Z,22.00
2018-09-12T02:47:40.797Z,22.00
2018-09-12T02:50:12.553Z,21.90
2018-09-12T02:52:41.499Z,21.90
2018-09-12T02:55:12.737Z,21.90
2018-09-12T02:57:42.175Z,21.90
2018-09-12T03:00:11.288Z,21.90
2018-09-12T03:02:39.892Z,21.90
2018-09-12T03:05:08.647Z,21.80
2018-09-12T03:07:37.864Z,21.90
2018-09-12T03:10:07.714Z,21.90
2018-09-12T03:12:36.071Z,21.90
2018-09-12T03:15:04.566Z,21.90
2018-09-12T03:17:32.921Z,21.90
2018-09-12T03:20:01.315Z,21.90
2018-09-12T03:22:29.637Z,21.90
2018-09-12T03:24:58.085Z,21.90
2018-09-12T03:27:26.469Z,21.80
2018-09-12T03:29:54.844Z,21.80
2018-09-12T03:32:23.212Z,21.80
2018-09-12T03:34:51.609Z,21.80
2018-09-12T03:37:19.954Z,21.80
2018-09-12T03:39:48.356Z,21.80
2018-09-12T03:42:16.724Z,21.80
2018-09-12T03:44:45.118Z,21.80
2018-09-12T03:47:13.627Z,21.80
2018-09-12T03:49:42.136Z,21.80
2018-09-12T03:52:10.529Z,21.80
2018-09-12T03:54:38.890Z,21.80
2018-09-12T03:57:07.395Z,21.80
2018-09-12T03:59:35.810Z,21.90
2018-09-12T04:02:04.221Z,21.80
2018-09-12T04:04:32.713Z,21.80
2018-09-12T04:07:01.055Z,21.80
2018-09-12T04:16:29.920Z,21.80
2018-09-12T04:18:58.725Z,21.50
2018-09-12T04:21:27.304Z,21.40
2018-09-12T04:23:55.753Z,21.50
2018-09-12T04:26:24.184Z,21.40
2018-09-12T04:28:52.581Z,21.50
2018-09-12T04:31:21.114Z,21.50
2018-09-12T04:33:49.534Z,21.40
2018-09-12T04:36:18.108Z,21.40
2018-09-12T04:38:46.661Z,21.40
2018-09-12T04:41:15.015Z,21.40
2018-09-12T04:43:43.467Z,21.30
2018-09-12T04:46:12.005Z,21.30
2018-09-12T04:48:40.846Z,21.20
2018-09-12T04:51:09.325Z,21.20
2018-09-12T04:53:37.808Z,21.20
2018-09-12T04:56:06.382Z,21.10
2018-09-12T04:58:35.143Z,21.10
2018-09-12T05:01:03.584Z,21.10
2018-09-12T05:03:32.770Z,21.10
2018-09-12T05:06:01.490Z,21.00
2018-09-12T05:08:30.196Z,21.00
2018-09-12T05:10:59.124Z,21.00
2018-09-12T05:13:27.617Z,21.00
2018-09-12T05:15:56.350Z,21.10
2018-09-12T05:18:24.814Z,21.00
2018-09-12T05:20:53.231Z,21.10
2018-09-12T05:23:21.625Z,21.10
2018-09-12T05:25:50.075Z,21.10
2018-09-12T05:28:18.451Z,21.10
2018-09-12T05:30:46.830Z,21.10
2018-09-12T05:33:15.184Z,21.10
2018-09-12T05:35:43.585Z,21.10
2018-09-12T05:38:11.994Z,21.10
2018-09-12T05:40:40.385Z,21.10
2018-09-12T05:43:08.935Z,21.10
2018-09-12T05:45:37.387Z,21.00
2018-09-12T05:48:06.001Z,21.00
2018-09-12T05:50:34.426Z,21.00
2018-09-12T05:53:02.929Z,21.00
2018-09-12T05:55:31.296Z,21.00
2018-09-12T05:57:59.655Z,21.10
2018-09-12T06:00:28.057Z,21.10
2018-09-12T06:02:56.906Z,21.20
2018-09-12T06:05:25.273Z,21.20
2018-09-12T06:07:53.714Z,21.20
2018-09-12T06:10:22.125Z,21.20
2018-09-12T06:12:50.568Z,21.20
2018-09-12T06:15:19.114Z,21.10
2018-09-12T06:17:47.527Z,21.10
2018-09-12T06:20:15.998Z,21.10
2018-09-12T06:22:44.427Z,21.10
2018-09-12T06:25:12.799Z,21.10
2018-09-12T06:27:41.363Z,21.10
2018-09-12T06:30:09.835Z,21.10
2018-09-12T06:32:38.355Z,21.10
2018-09-12T06:35:06.795Z,21.20
2018-09-12T06:37:35.393Z,21.20
2018-09-12T06:40:04.329Z,21.20
2018-09-12T06:42:32.774Z,21.20
2018-09-12T06:45:01.232Z,21.20
2018-09-12T06:47:29.787Z,21.20
2018-09-12T06:49:58.170Z,21.20
2018-09-12T06:52:26.637Z,21.20
2018-09-12T06:54:55.006Z,21.10
2018-09-12T06:57:23.423Z,21.10
2018-09-12T06:59:51.999Z,21.10
2018-09-12T07:03:34.937Z,21.10
2018-09-12T07:06:03.357Z,21.10
2018-09-12T07:08:31.956Z,21.00
2018-09-12T07:11:00.431Z,21.00
2018-09-12T07:13:28.857Z,21.10
2018-09-12T07:15:57.229Z,21.10
2018-09-12T07:18:25.657Z,21.10
2018-09-12T07:20:54.097Z,21.10
2018-09-12T07:23:22.424Z,21.10
2018-09-12T07:25:50.847Z,21.10
2018-09-12T07:28:19.263Z,21.10
2018-09-12T07:30:48.159Z,21.20
2018-09-12T07:33:16.504Z,21.20
2018-09-12T07:35:46.883Z,21.30
2018-09-12T07:38:15.831Z,21.20
2018-09-12T07:40:44.347Z,21.30
2018-09-12T07:43:12.691Z,21.30
2018-09-12T07:45:41.108Z,21.30
2018-09-12T07:48:09.515Z,21.20
2018-09-12T07:50:37.912Z,21.30
2018-09-12T07:53:06.341Z,21.30
2018-09-12T07:55:34.787Z,21.20
2018-09-12T07:58:03.144Z,21.20
2018-09-12T08:00:31.609Z,21.10
2018-09-12T08:03:00.316Z,21.20
2018-09-12T08:05:28.713Z,21.20
2018-09-12T08:07:57.148Z,21.30
2018-09-12T08:10:25.647Z,21.30
2018-09-12T08:12:54.048Z,21.30
2018-09-12T08:15:22.402Z,21.30
2018-09-12T08:17:50.910Z,21.30
2018-09-12T08:20:19.488Z,21.40
2018-09-12T08:22:47.968Z,21.50
2018-09-12T08:25:16.439Z,21.50
2018-09-12T08:27:45.163Z,21.60
2018-09-12T08:30:14.185Z,21.60
2018-09-12T08:32:42.589Z,21.60
2018-09-12T08:35:13.627Z,21.70
2018-09-12T08:37:41.971Z,21.80
2018-09-12T08:40:11.491Z,21.80
2018-09-12T08:42:40.002Z,21.70
2018-09-12T08:45:08.291Z,21.70
2018-09-12T08:47:36.809Z,21.80
2018-09-12T08:50:05.970Z,21.80
2018-09-12T08:52:34.450Z,21.90
2018-09-12T08:55:02.949Z,22.00
2018-09-12T08:57:31.406Z,22.00
2018-09-12T08:59:59.784Z,22.10
2018-09-12T09:02:28.584Z,22.20
2018-09-12T09:04:57.107Z,22.30
2018-09-12T09:07:25.510Z,22.40
2018-09-12T09:09:53.935Z,22.50
2018-09-12T09:12:22.471Z,22.70
2018-09-12T09:14:51.333Z,22.80
2018-09-12T09:17:21.378Z,22.90
2018-09-12T09:19:50.356Z,23.00
2018-09-12T09:22:19.166Z,23.10
2018-09-12T09:24:47.502Z,23.00
2018-09-12T09:27:15.868Z,23.00
2018-09-12T09:29:44.296Z,23.10
2018-09-12T09:32:12.677Z,23.10
2018-09-12T09:34:41.091Z,23.00
2018-09-12T09:37:09.515Z,22.90
2018-09-12T09:39:37.942Z,22.80
2018-09-12T09:42:06.334Z,22.70
2018-09-12T09:44:35.098Z,22.60
2018-09-12T09:47:03.470Z,22.50
2018-09-12T09:49:32.172Z,22.50
2018-09-12T09:52:00.538Z,22.50
2018-09-12T09:54:28.938Z,22.50
2018-09-12T09:56:57.340Z,22.50
2018-09-12T09:59:25.712Z,22.60
2018-09-12T10:01:59.480Z,22.60
2018-09-12T10:04:33.185Z,22.60
2018-09-12T10:07:06.826Z,22.60
2018-09-12T10:09:35.237Z,22.50
2018-09-12T10:12:04.260Z,22.50
2018-09-12T10:14:32.892Z,22.60
2018-09-12T10:17:01.300Z,22.60
2018-09-12T10:19:29.805Z,22.60
2018-09-12T10:21:58.196Z,22.60
2018-09-12T10:24:26.679Z,22.60
2018-09-12T10:26:54.983Z,22.70
2018-09-12T10:29:23.320Z,22.80
2018-09-12T10:31:51.706Z,23.00
2018-09-12T10:34:20.074Z,23.10
2018-09-12T10:36:48.484Z,23.30
2018-09-12T10:39:16.876Z,23.30
2018-09-12T10:41:45.273Z,23.40
2018-09-12T10:44:13.738Z,23.40
2018-09-12T10:46:42.154Z,23.20
2018-09-12T10:49:10.589Z,23.10
2018-09-12T10:51:39.002Z,23.10
2018-09-12T10:54:07.429Z,22.80
2018-09-12T10:56:35.805Z,22.70
2018-09-12T10:59:04.274Z,22.50
2018-09-12T11:01:32.562Z,22.50
2018-09-12T11:04:01.812Z,22.40
2018-09-12T11:06:30.150Z,22.30
2018-09-12T11:08:58.512Z,22.30
2018-09-12T11:11:27.461Z,22.40
2018-09-12T11:13:55.837Z,22.40
2018-09-12T11:16:39.103Z,22.30
2018-09-12T11:19:07.523Z,22.30
2018-09-12T11:21:35.919Z,22.20
2018-09-12T11:24:04.398Z,22.20
2018-09-12T11:26:32.755Z,22.20
2018-09-12T11:29:01.103Z,22.10
2018-09-12T11:31:29.858Z,22.10
2018-09-12T11:33:58.207Z,22.00
2018-09-12T11:36:26.655Z,21.90
2018-09-12T11:38:55.020Z,21.80
2018-09-12T11:41:23.568Z,21.80
2018-09-12T11:43:52.155Z,21.80
2018-09-12T11:46:20.502Z,21.90
2018-09-12T11:48:48.947Z,22.00
2018-09-12T11:51:17.308Z,22.10
2018-09-12T11:53:45.670Z,22.20
2018-09-12T11:56:14.124Z,22.20
2018-09-12T11:58:42.549Z,22.20
2018-09-12T12:01:10.899Z,22.20
2018-09-12T12:03:39.428Z,22.30
2018-09-12T12:06:08.205Z,22.30
2018-09-12T12:08:36.758Z,22.30
2018-09-12T12:11:05.363Z,22.30
2018-09-12T12:13:33.740Z,22.20
2018-09-12T12:16:02.105Z,22.00
2018-09-12T12:18:30.720Z,21.90
2018-09-12T12:20:59.058Z,21.90
2018-09-12T12:23:27.395Z,21.90
2018-09-12T12:25:55.847Z,21.90
2018-09-12T12:28:24.226Z,21.90
2018-09-12T12:30:52.547Z,21.90
2018-09-12T12:33:20.917Z,21.90
2018-09-12T12:35:49.271Z,21.90
2018-09-12T12:38:17.597Z,21.90
2018-09-12T12:40:46.115Z,21.90
2018-09-12T12:43:14.462Z,21.90
2018-09-12T12:45:42.934Z,21.90
2018-09-12T12:48:11.311Z,21.90
2018-09-12T12:50:39.794Z,21.90
2018-09-12T12:53:08.442Z,21.90
2018-09-12T12:55:36.860Z,21.90
2018-09-12T12:58:05.282Z,21.80
2018-09-12T13:00:33.618Z,21.80
2018-09-12T13:03:01.997Z,21.60
2018-09-12T13:05:30.524Z,21.50
2018-09-12T13:07:59.326Z,21.50
2018-09-12T13:10:27.742Z,21.50
2018-09-12T13:12:56.086Z,21.40
2018-09-12T13:15:24.581Z,21.40
2018-09-12T13:17:53.013Z,21.30
2018-09-12T13:20:21.771Z,21.20
2018-09-12T13:22:50.171Z,21.20
2018-09-12T13:25:18.500Z,21.20
2018-09-12T13:27:46.927Z,21.30
2018-09-12T13:30:15.239Z,21.30
2018-09-12T13:32:43.663Z,21.30
2018-09-12T13:35:12.120Z,21.30
2018-09-12T13:37:40.472Z,21.30
2018-09-12T13:40:08.823Z,21.30
2018-09-12T13:42:37.352Z,21.20
2018-09-12T13:45:06.532Z,21.20
2018-09-12T13:47:34.961Z,21.20
2018-09-12T13:50:04.023Z,21.20
2018-09-12T13:52:32.412Z,21.20
2018-09-12T13:55:01.043Z,21.20
2018-09-12T13:57:29.402Z,21.20
2018-09-12T13:59:57.795Z,21.20
2018-09-12T14:02:26.462Z,21.20
2018-09-12T14:04:54.926Z,21.10
2018-09-12T14:07:23.303Z,21.10
2018-09-12T14:09:51.690Z,21.00
2018-09-12T14:12:20.101Z,20.90
2018-09-12T14:14:48.544Z,20.90
2018-09-12T14:17:17.064Z,20.90
2018-09-12T14:19:45.612Z,20.80
2018-09-12T14:22:14.194Z,20.80
2018-09-12T14:24:42.626Z,20.70
2018-09-12T14:27:11.043Z,20.70
2018-09-12T14:29:39.480Z,20.70
2018-09-12T14:32:08.176Z,20.70
2018-09-12T14:34:36.525Z,20.70
2018-09-12T14:37:04.956Z,20.70
2018-09-12T14:39:33.378Z,20.70
2018-09-12T14:42:01.864Z,20.60
2018-09-12T14:44:30.244Z,20.60
2018-09-12T14:46:58.635Z,20.60
2018-09-12T14:49:27.063Z,20.60
2018-09-12T14:51:55.653Z,20.60
2018-09-12T14:54:24.141Z,20.60
2018-09-12T14:56:52.462Z,20.60
2018-09-12T14:59:20.891Z,20.70
2018-09-12T15:01:49.329Z,20.70
2018-09-12T15:04:17.738Z,20.60
2018-09-12T15:06:46.155Z,20.70
2018-09-12T15:09:14.605Z,20.70
2018-09-12T15:11:44.118Z,20.70
2018-09-12T15:14:12.490Z,20.70
2018-09-12T15:16:41.031Z,20.80
2018-09-12T15:19:09.550Z,20.80
2018-09-12T15:21:38.295Z,20.80
2018-09-12T15:24:07.297Z,20.80
2018-09-12T15:26:35.835Z,20.80
2018-09-12T15:29:04.926Z,20.80
2018-09-12T15:31:33.383Z,20.80
2018-09-12T15:34:01.958Z,20.90
2018-09-12T15:36:30.430Z,20.80
2018-09-12T15:38:59.190Z,20.90
2018-09-12T15:41:28.147Z,20.80
2018-09-12T15:43:56.593Z,20.90
2018-09-12T15:46:25.525Z,20.90
2018-09-12T15:48:54.114Z,20.90
2018-09-12T15:51:22.956Z,20.90
2018-09-12T15:53:51.888Z,20.90
2018-09-12T15:56:20.735Z,20.80
2018-09-12T15:58:49.344Z,20.80
2018-09-12T16:01:18.094Z,20.80
2018-09-12T16:03:47.148Z,20.80
2018-09-12T16:06:15.543Z,20.80
2018-09-12T16:08:44.405Z,20.80
2018-09-12T16:11:13.097Z,20.80
2018-09-12T16:13:41.759Z,20.90
2018-09-12T16:16:11.172Z,20.90
2018-09-12T16:18:40.067Z,20.80
2018-09-12T16:21:09.060Z,20.80
2018-09-12T16:23:37.969Z,20.80
2018-09-12T16:26:06.725Z,20.80
2018-09-12T16:28:35.342Z,20.70
2018-09-12T16:31:03.888Z,20.70
2018-09-12T16:33:32.526Z,20.70
2018-09-12T16:36:01.264Z,20.70
2018-09-12T16:38:29.772Z,20.70
2018-09-12T16:40:58.313Z,20.60
2018-09-12T16:43:27.247Z,20.60
2018-09-12T16:45:56.322Z,20.50
2018-09-12T16:48:25.983Z,20.50
2018-09-12T16:50:54.449Z,20.50
2018-09-12T16:53:23.293Z,20.50
2018-09-12T16:55:52.032Z,20.50
2018-09-12T16:58:21.023Z,20.50
2018-09-12T17:00:49.608Z,20.40
2018-09-12T17:03:18.056Z,20.40
2018-09-12T17:05:47.649Z,20.40
2018-09-12T17:08:17.443Z,20.40
2018-09-12T17:10:46.916Z,20.40
2018-09-12T17:13:16.209Z,20.40
2018-09-12T17:15:45.301Z,20.40
2018-09-12T17:18:14.584Z,20.40
2018-09-12T17:20:44.060Z,20.40
2018-09-12T17:23:13.301Z,20.40
2018-09-12T17:25:42.493Z,20.40
2018-09-12T17:28:11.371Z,20.40
2018-09-12T17:30:40.588Z,20.30
2018-09-12T17:33:09.358Z,20.30
2018-09-12T17:35:38.471Z,20.20
2018-09-12T17:38:08.208Z,20.20
2018-09-12T17:40:36.671Z,20.20
2018-09-12T17:43:05.386Z,20.20
2018-09-12T17:45:33.810Z,20.20
2018-09-12T17:48:02.355Z,20.30
2018-09-12T17:50:30.745Z,20.30
2018-09-12T17:52:59.180Z,20.30
2018-09-12T17:55:27.612Z,20.20
2018-09-12T17:57:56.413Z,20.20
2018-09-12T18:00:25.217Z,20.10
2018-09-12T18:02:53.762Z,20.10
2018-09-12T18:05:22.440Z,20.10
2018-09-12T18:07:51.190Z,20.10
2018-09-12T18:10:20.262Z,20.10
2018-09-12T18:12:49.819Z,20.10
2018-09-12T18:15:18.330Z,20.10
2018-09-12T18:17:46.889Z,20.00
2018-09-12T18:20:15.419Z,20.10
2018-09-12T18:22:44.677Z,20.10
2018-09-12T18:25:13.354Z,20.00
2018-09-12T18:27:41.808Z,20.00
2018-09-12T18:30:11.510Z,20.00
2018-09-12T18:32:39.981Z,20.00
2018-09-12T18:35:08.606Z,20.00
2018-09-12T18:37:37.291Z,20.00
2018-09-12T18:40:06.686Z,20.00
2018-09-12T18:42:36.185Z,20.00
2018-09-12T18:45:05.439Z,20.00
2018-09-12T18:47:34.234Z,20.00
2018-09-12T18:50:03.461Z,20.00
2018-09-12T18:52:32.471Z,19.90
2018-09-12T18:55:01.265Z,20.00
2018-09-12T18:57:29.879Z,20.00
2018-09-12T18:59:59.089Z,20.00
2018-09-12T19:02:28.244Z,20.00
2018-09-12T19:08:00.562Z,20.00
2018-09-12T19:10:29.201Z,19.90
2018-09-12T19:12:58.242Z,19.90
2018-09-12T19:15:27.061Z,19.90
2018-09-12T19:17:55.709Z,20.00
2018-09-12T19:20:24.850Z,20.00
2018-09-12T19:22:53.606Z,20.00
2018-09-12T19:25:22.159Z,20.00
2018-09-12T19:27:50.959Z,20.00
2018-09-12T19:30:19.942Z,19.90
2018-09-12T19:32:48.613Z,19.90
2018-09-12T19:35:17.511Z,19.90
2018-09-12T19:37:46.880Z,19.90
2018-09-12T19:40:15.993Z,19.90
2018-09-12T19:42:44.680Z,19.90
2018-09-12T19:45:13.522Z,19.90
2018-09-12T19:47:42.029Z,19.90
2018-09-12T19:50:10.692Z,19.90
2018-09-12T19:52:39.302Z,19.90
2018-09-12T19:55:08.467Z,19.80
2018-09-12T19:57:37.377Z,19.80
2018-09-12T20:00:11.061Z,19.80
2018-09-12T20:02:39.868Z,19.80
2018-09-12T20:05:09.100Z,19.90
2018-09-12T20:07:38.054Z,19.90
2018-09-12T20:10:06.805Z,19.80
2018-09-12T20:12:36.164Z,19.80
2018-09-12T20:15:05.369Z,19.80
2018-09-12T20:17:34.043Z,19.80
2018-09-12T20:20:03.462Z,19.80
2018-09-12T20:22:32.122Z,19.80
2018-09-12T20:25:00.958Z,19.80
2018-09-12T20:27:30.234Z,19.70
2018-09-12T20:29:59.194Z,19.70
2018-09-12T20:32:27.924Z,19.70
2018-09-12T20:34:56.599Z,19.70
2018-09-12T20:37:25.214Z,19.70
2018-09-12T20:39:54.098Z,19.70
2018-09-12T20:42:22.930Z,19.80
2018-09-12T20:44:51.790Z,19.80
2018-09-12T20:47:20.592Z,19.80
2018-09-12T20:49:49.728Z,19.70
2018-09-12T20:52:18.479Z,19.80
2018-09-12T20:54:47.147Z,19.80
2018-09-12T20:57:16.701Z,19.80
2018-09-12T20:59:45.461Z,19.70
2018-09-12T21:02:13.979Z,19.80
2018-09-12T21:04:42.733Z,19.80
2018-09-12T21:07:11.141Z,19.80
2018-09-12T21:09:39.863Z,19.90
2018-09-12T21:12:08.378Z,19.90
2018-09-12T21:14:36.981Z,19.90
2018-09-12T21:17:05.589Z,19.90
2018-09-12T21:19:34.190Z,19.90
2018-09-12T21:22:02.921Z,19.80
2018-09-12T21:24:31.460Z,19.80
2018-09-12T21:27:00.539Z,19.70
2018-09-12T21:29:30.053Z,19.70
2018-09-12T21:31:58.927Z,19.70
2018-09-12T21:34:27.944Z,19.70
2018-09-12T21:36:56.951Z,19.70
2018-09-12T21:39:25.639Z,19.60
2018-09-12T21:41:54.571Z,19.60
2018-09-12T21:44:23.326Z,19.60
2018-09-12T21:46:52.370Z,19.50
2018-09-12T21:49:21.827Z,19.50
2018-09-12T21:51:50.493Z,19.50
2018-09-12T21:54:19.173Z,19.50
2018-09-12T21:56:48.751Z,19.40
2018-09-12T21:59:18.622Z,19.40
2018-09-12T22:01:47.342Z,19.40
2018-09-12T22:04:17.171Z,19.40
2018-09-12T22:06:47.412Z,19.40
2018-09-12T22:09:16.127Z,19.40
2018-09-12T22:11:44.765Z,19.40
2018-09-12T22:14:13.858Z,19.40
2018-09-12T22:16:42.349Z,19.40
2018-09-12T22:19:10.837Z,19.40
2018-09-12T22:21:39.343Z,19.40
2018-09-12T22:24:07.843Z,19.30
2018-09-12T22:26:36.533Z,19.30
2018-09-12T22:29:05.032Z,19.20
2018-09-12T22:31:33.570Z,19.20
2018-09-12T22:34:02.931Z,19.30
2018-09-12T22:36:31.349Z,19.20
2018-09-12T22:38:59.886Z,19.20
2018-09-12T22:41:28.419Z,19.10
2018-09-12T22:43:56.939Z,19.20
2018-09-12T22:46:25.669Z,19.20
2018-09-12T22:48:54.712Z,19.20
2018-09-12T22:51:23.072Z,19.20
2018-09-12T22:53:51.817Z,19.20
2018-09-12T22:56:20.345Z,19.10
2018-09-12T22:58:49.042Z,19.10
2018-09-12T23:01:19.096Z,19.10
2018-09-12T23:03:47.706Z,19.00
2018-09-12T23:06:16.166Z,19.00
2018-09-12T23:08:44.750Z,19.00
2018-09-12T23:11:13.272Z,19.00
2018-09-12T23:13:42.460Z,18.90
2018-09-12T23:16:11.228Z,18.90
2018-09-12T23:18:39.657Z,18.90
2018-09-12T23:21:08.680Z,18.90
2018-09-12T23:23:37.084Z,18.90
2018-09-12T23:26:05.561Z,18.80
2018-09-12T23:28:34.083Z,18.80
2018-09-12T23:31:02.578Z,18.70
2018-09-12T23:33:31.550Z,18.70
2018-09-12T23:35:59.948Z,18.70
2018-09-12T23:38:28.428Z,18.60
2018-09-12T23:40:57.161Z,18.60
2018-09-12T23:43:26.141Z,18.70
2018-09-12T23:45:54.988Z,18.60
2018-09-12T23:48:24.053Z,18.60
2018-09-12T23:50:53.309Z,18.60
2018-09-12T23:53:21.783Z,18.60
2018-09-12T23:55:50.883Z,18.60
2018-09-12T23:58:19.333Z,18.60
